Flight Track Log - Related Links

Times and Time Zones

All times are in EDT time to prevent confusion due to time zone crossing. See the N546LM flight status page for this flight to view local times or setup timezone preferences in your user account.

Time Position Orientation Groundspeed Altitude Reporting Facility
EDT Latitude Longitude Course Direction KTS MPH feet Rate Location/Type
Tue 01:29:12 AM 64.8500 -147.9667 270° West 200 230 4,300  Level Anchorage Center
Tue 01:30:13 AM 64.8500 -148.1000 270° West 200 230 6,200 1,785 Climbing Anchorage Center
Tue 01:31:13 AM 64.8500 -148.2333 270° West 200 230 7,900 1,686 Climbing Anchorage Center
Tue 01:32:14 AM 64.8500 -148.3667 270° West 210 242 9,600 1,587 Climbing Anchorage Center
Tue 01:33:14 AM 64.8500 -148.4833 270° West 220 253 11,100 1,550 Climbing Anchorage Center
Tue 01:34:14 AM 64.8667 -148.6333 285° West 220 253 12,700 1,388 Climbing Anchorage Center
Tue 01:35:15 AM 64.8667 -148.7667 270° West 220 253 13,900 1,289 Climbing Anchorage Center
Tue 01:36:15 AM 64.8667 -148.9167 270° West 230 265 15,300 1,300 Climbing Anchorage Center
Tue 01:37:15 AM 64.8667 -149.0833 270° West 240 276 16,500 1,140 Climbing Anchorage Center
Tue 01:38:16 AM 64.8667 -149.2333 270° West 230 265 17,600 942 Climbing Anchorage Center
Tue 01:39:16 AM 64.8667 -149.3833 270° West 240 276 18,400 850 Climbing Anchorage Center
Tue 01:40:16 AM 64.8667 -149.5333 270° West 230 265 19,300 843 Climbing Anchorage Center
Tue 01:41:17 AM 64.8667 -149.7000 270° West 240 276 20,100 793 Climbing Anchorage Center
Tue 01:42:17 AM 64.8667 -149.8500 270° West 210 242 20,900 700 Climbing Anchorage Center
Tue 01:43:17 AM 64.8667 -150.0333 270° West 250 288 21,500 545 Climbing Anchorage Center
Tue 01:44:18 AM 64.8667 -150.1833 270° West 240 276 22,000 248 Climbing Anchorage Center
Tue 01:45:18 AM 64.8667 -150.3500 270° West 270 311 22,000  Level Anchorage Center
Tue 01:46:18 AM 64.8667 -150.5167 270° West 260 299 22,000  Level Anchorage Center
Tue 01:47:18 AM 64.8667 -150.7000 270° West 270 311 22,000  Level Anchorage Center
Tue 01:48:19 AM 64.8667 -150.8833 270° West 260 299 22,000  Level Anchorage Center
Tue 01:49:19 AM 64.8667 -151.0500 270° West 270 311 22,000  Level Anchorage Center
Tue 01:50:19 AM 64.8667 -151.2333 270° West 270 311 22,000  Level Anchorage Center
Tue 01:51:20 AM 64.8667 -151.4167 270° West 270 311 22,000  Level Anchorage Center
Tue 01:52:20 AM 64.8667 -151.5833 270° West 270 311 22,000  Level Anchorage Center
Tue 01:53:20 AM 64.8667 -151.8000 270° West 260 299 22,000  Level Anchorage Center
Tue 01:54:21 AM 64.8667 -151.9833 270° West 280 322 22,000  Level Anchorage Center
Tue 01:55:21 AM 64.8667 -152.1500 270° West 270 311 22,000  Level Anchorage Center
Tue 01:56:22 AM 64.8500 -152.3167 257° West 270 311 22,000  Level Anchorage Center
Tue 01:57:22 AM 64.8500 -152.5000 270° West 270 311 22,000  Level Anchorage Center
Tue 01:58:22 AM 64.8500 -152.6833 270° West 280 322 22,000  Level Anchorage Center
Tue 01:59:23 AM 64.8500 -152.8500 270° West 270 311 22,000  Level Anchorage Center
Tue 02:00:23 AM 64.8500 -153.0333 270° West 270 311 22,000  Level Anchorage Center
Tue 02:01:23 AM 64.8500 -153.2167 270° West 290 334 22,000  Level Anchorage Center
Tue 02:02:24 AM 64.8333 -153.4000 258° West 270 311 22,000  Level Anchorage Center
Tue 02:03:24 AM 64.8333 -153.5833 270° West 270 311 22,000  Level Anchorage Center
Tue 02:04:24 AM 64.8333 -153.7500 270° West 280 322 22,000  Level Anchorage Center
Tue 02:05:25 AM 64.8333 -153.9333 270° West 270 311 22,000  Level Anchorage Center
Tue 02:06:25 AM 64.8167 -154.1167 258° West 270 311 22,000  Level Anchorage Center
Tue 02:07:25 AM 64.8167 -154.3000 270° West 280 322 22,000  Level Anchorage Center
Tue 02:08:26 AM 64.8167 -154.4833 270° West 270 311 22,000  Level Anchorage Center
Tue 02:09:26 AM 64.8000 -154.6500 257° West 270 311 22,000  Level Anchorage Center
Tue 02:10:27 AM 64.8000 -154.8500 270° West 280 322 22,000  Level Anchorage Center
Tue 02:11:27 AM 64.8000 -155.0167 270° West 280 322 22,000 -50 Level Anchorage Center
Tue 02:12:27 AM 64.8000 -155.2000 270° West 280 322 21,900 -694 Descending Anchorage Center
Tue 02:13:28 AM 64.7833 -155.4000 259° West 310 357 20,600 -1,289 Descending Anchorage Center
Tue 02:14:28 AM 64.7833 -155.6000 270° West 300 345 19,300 -1,300 Descending Anchorage Center
Tue 02:15:28 AM 64.7667 -155.8000 259° West 280 322 18,000 -1,300 Descending Anchorage Center
Tue 02:17:00 AM 64.7633 -156.0488 265° West  Level FlightAware Approximate
Tue 02:24:00 AM 64.7333 -156.9333 270° West  Level FlightAware Approximate
Tue 02:25:00 AM 64.7362 -156.9374 270° West  Level Estimated
Tue 02:26:00 AM 64.7333 -156.9333 270° West  Level FlightAware Approximate
Tue 02:27:00 AM 64.7362 -156.9374 270° West  Level Estimated
Tue 02:28:00 AM 64.7333 -156.9333 270° West  Level FlightAware Approximate
Tue 02:29:00 AM 64.7362 -156.9374 270° West  Level Estimated
Tue 02:30:00 AM 64.7333 -156.9333 270° West  Level FlightAware Approximate
Tue 02:31:00 AM 64.7362 -156.9374 270° West  Level Estimated
Tue 02:32:00 AM 64.7333 -156.9333 270° West  Level FlightAware Approximate
Tue 02:33:00 AM 64.7362 -156.9374 270° West  Level Estimated
Tue 02:34:00 AM 64.7333 -156.9333 270° West  Level FlightAware Approximate
Tue 02:35:00 AM 64.7362 -156.9374 270° West  Level Estimated
Tue 02:36:00 AM 64.7333 -156.9333 270° West  Level FlightAware Approximate
Tue 02:37:00 AM 64.7362 -156.9374 270° West  Level Estimated
Tue 02:38:00 AM 64.7333 -156.9333 270° West  Level FlightAware Approximate

Login

Don't have an account? Register now (free) for customized features, flight alerts, and more!